Rocky Comfort, MO

4:11 AM CDT on September 02, 2014 (GMT -0500)
Monett | Change Station
CLOSE
Current Station
Airport
Location: Monett,
Elevation: 1316 ft
Nearby Weather Stations
Active Advisory: Flash Flood Watch

Elev 1316 ft 36.91 °N, 94.01 °W | Updated 16 minutes ago

Light Thunderstorms and Rain
Light Thunderstorm Rain
64 °F
Feels Like 64 °F
N
8
Wind Variable Wind from SSE

Today
High -- | Low -- °F
--% Chance of Precip.
Yesterday
High -- | Low -- °F
Precip. -- in
6:48 AM 7:43 PM
Waxing Crescent, 49% visible
Pressure 29.96 in
Visibility 10.0 miles
Clouds Scattered Clouds 7500 ft
Mostly Cloudy 10000 ft
Mostly Cloudy 12000 ft
Dew Point 64 °F
Humidity 100%
Rainfall 2.11 in
Snow Depth Not available.
UV 0 out of 12
Pollen 11.40 out of 12
Air Quality Not available.
Flu Activity Not available.
METAR KHFJ 020855Z AUTO 16007KT 10SM -VCTSRA SCT075 BKN100 BKN120 18/18 A2996 RMK AO2 LTG DSNT ALQS P0048

More Conditions Fewer Conditions

Pressure 29.96 in
Visibility 10.0 miles
Clouds Scattered Clouds 7500 ft
Mostly Cloudy 10000 ft
Mostly Cloudy 12000 ft
Dew Point 64 °F
Humidity 100%
Rainfall 2.11 in
Snow Depth Not available.
UV 0 out of 12
Pollen 11.40 out of 12
Air Quality Not available.
Flu Activity Not available.
METAR KHFJ 020855Z AUTO 16007KT 10SM -VCTSRA SCT075 BKN100 BKN120 18/18 A2996 RMK AO2 LTG DSNT ALQS P0048

More Conditions Fewer Conditions

10-Day Weather Forecast

Almanac

Astronomy

Sep. 02, 2014 Rise Set
Actual Time 6:48 AM CDT 7:43 PM CDT
Civil Twilight 6:21 AM CDT 8:09 PM CDT
Nautical Twilight 5:50 AM CDT 8:40 PM CDT
Astronomical Twilight 5:18 AM CDT 9:12 PM CDT
Moon 2:22 PM CDT No Moon Set
Length of Visible Light 13h 47m
Length of Day
12h 54m
Tomorrow will be 2m 15s shorter.
Waxing Crescent, 49% of the Moon is Illuminated
Today
Waxing Crescent
Sep 2
First Quarter
Sep 8
Full
Sep 15
Last Quarter
Sep 24
New

Today's Extremes

State Highs State Lows

Community

WunderPhotos

Upload Photos

1,749,587 photos uploaded!

WunderBlogs® & News

Nearby

Snow Depth

Station Depth Elevation
No new snow has been reported.

Earthquake Activity

City Distance Mag. Time & Date
No recent earthquake activity has been reported nearby.
Minimum magnitude displayed is 2.5.

Coastal Water Temperatures

Place Temperature
No Stations Reporting

Nearby Weather Stations